createdAt,value
2023-02-11T00:00:59.845Z,-1.60
2023-02-11T00:03:26.697Z,-1.50
2023-02-11T00:06:04.593Z,-1.30
2023-02-11T00:08:31.504Z,-1.20
2023-02-11T00:10:58.795Z,-1.20
2023-02-11T00:13:25.922Z,-1.20
2023-02-11T00:15:53.964Z,-1.10
2023-02-11T00:18:21.293Z,-1.00
2023-02-11T00:20:48.112Z,-0.90
2023-02-11T00:23:14.919Z,-0.80
2023-02-11T00:25:45.579Z,-0.70
2023-02-11T00:28:12.910Z,-0.70
2023-02-11T00:30:40.864Z,-0.70
2023-02-11T00:33:08.558Z,-0.70
2023-02-11T00:35:38.649Z,-0.70
2023-02-11T00:38:08.081Z,-0.80
2023-02-11T00:40:34.936Z,-0.80
2023-02-11T00:43:03.536Z,-0.80
2023-02-11T00:45:30.645Z,-0.70
2023-02-11T00:47:57.944Z,-0.70
2023-02-11T00:50:24.769Z,-0.60
2023-02-11T00:52:51.545Z,-0.50
2023-02-11T00:55:18.423Z,-0.50
2023-02-11T00:57:45.162Z,-0.40
2023-02-11T01:00:13.769Z,-0.40
2023-02-11T01:02:40.566Z,-0.40
2023-02-11T01:05:07.981Z,-0.40
2023-02-11T01:07:34.787Z,-0.30
2023-02-11T01:10:01.517Z,-0.20
2023-02-11T01:12:30.095Z,-0.10
2023-02-11T01:14:58.388Z,0.00
2023-02-11T01:17:25.224Z,0.00
2023-02-11T01:19:51.945Z,0.10
2023-02-11T01:22:18.762Z,0.10
2023-02-11T01:24:47.687Z,0.10
2023-02-11T01:27:14.448Z,0.00
2023-02-11T01:29:41.283Z,0.00
2023-02-11T01:32:08.248Z,0.10
2023-02-11T01:34:35.272Z,0.00
2023-02-11T01:37:02.491Z,0.00
2023-02-11T01:39:36.235Z,-0.10
2023-02-11T01:42:03.073Z,-0.10
2023-02-11T01:44:36.254Z,-0.20
2023-02-11T01:47:06.236Z,-0.30
2023-02-11T01:49:36.415Z,-0.30
2023-02-11T01:52:17.580Z,-0.40
2023-02-11T01:55:09.530Z,-0.30
2023-02-11T01:57:38.814Z,-0.30
2023-02-11T02:00:21.545Z,-0.30
2023-02-11T02:03:09.755Z,-0.30
2023-02-11T02:06:13.969Z,-0.30
2023-02-11T02:08:45.724Z,-0.20
2023-02-11T02:11:12.820Z,-0.20
2023-02-11T02:13:39.629Z,-0.10
2023-02-11T02:16:11.705Z,-0.10
2023-02-11T02:18:44.245Z,0.00
2023-02-11T02:21:48.896Z,0.10
2023-02-11T02:24:22.944Z,0.30
2023-02-11T02:27:08.425Z,0.40
2023-02-11T02:30:08.414Z,0.50
2023-02-11T02:33:22.488Z,0.60
2023-02-11T02:36:14.008Z,0.70
2023-02-11T02:38:59.124Z,0.80
2023-02-11T02:41:30.585Z,0.80
2023-02-11T02:43:57.793Z,0.90
2023-02-11T02:46:30.760Z,0.90
2023-02-11T02:48:59.260Z,1.00
2023-02-11T02:51:49.738Z,1.00
2023-02-11T02:54:43.879Z,1.00
2023-02-11T02:57:37.129Z,1.10
2023-02-11T03:00:19.420Z,1.20
2023-02-11T03:03:13.523Z,1.20
2023-02-11T03:05:49.023Z,1.20
2023-02-11T03:08:38.039Z,1.30
2023-02-11T03:11:07.589Z,1.30
2023-02-11T03:13:36.618Z,1.40
2023-02-11T03:16:11.392Z,1.40
2023-02-11T03:18:41.831Z,1.50
2023-02-11T03:21:11.007Z,1.50
2023-02-11T03:23:51.526Z,1.50
2023-02-11T03:26:48.429Z,1.40
2023-02-11T03:29:37.547Z,1.40
2023-02-11T03:32:07.530Z,1.40
2023-02-11T03:34:44.019Z,1.40
2023-02-11T03:37:40.119Z,1.40
2023-02-11T03:40:15.392Z,1.40
2023-02-11T03:43:11.181Z,1.30
2023-02-11T03:45:39.388Z,1.30
2023-02-11T03:48:19.899Z,1.30
2023-02-11T03:50:48.523Z,1.30
2023-02-11T03:53:16.879Z,1.30
2023-02-11T03:55:47.088Z,1.20
2023-02-11T03:58:13.898Z,1.00
2023-02-11T04:00:43.457Z,1.00
2023-02-11T04:03:11.166Z,1.00
2023-02-11T04:05:38.552Z,1.00
2023-02-11T04:08:05.678Z,1.00
2023-02-11T04:10:32.449Z,1.10
2023-02-11T04:12:59.287Z,1.20
2023-02-11T04:15:26.281Z,1.20
2023-02-11T04:17:53.015Z,1.30
2023-02-11T04:20:19.918Z,1.30
2023-02-11T04:22:46.767Z,1.40
2023-02-11T04:25:13.655Z,1.40
2023-02-11T04:27:40.412Z,1.40
2023-02-11T04:30:08.509Z,1.40
2023-02-11T04:32:35.241Z,1.40
2023-02-11T04:35:02.845Z,1.40
2023-02-11T04:37:29.636Z,1.30
2023-02-11T04:39:56.565Z,1.20
2023-02-11T04:42:23.620Z,1.20
2023-02-11T04:44:50.406Z,1.10
2023-02-11T04:47:17.899Z,1.10
2023-02-11T04:49:44.678Z,1.10
2023-02-11T04:52:11.521Z,1.10
2023-02-11T04:54:38.340Z,1.10
2023-02-11T04:57:05.421Z,1.10
2023-02-11T04:59:32.450Z,1.00
2023-02-11T05:01:59.197Z,1.10
2023-02-11T05:04:26.117Z,1.10
2023-02-11T05:06:52.894Z,1.10
2023-02-11T05:09:19.735Z,1.20
2023-02-11T05:11:46.486Z,1.20
2023-02-11T05:14:13.262Z,1.30
2023-02-11T05:16:40.144Z,1.30
2023-02-11T05:19:06.929Z,1.30
2023-02-11T05:21:34.056Z,1.30
2023-02-11T05:24:01.023Z,1.30
2023-02-11T05:26:27.901Z,1.40
2023-02-11T05:28:54.753Z,1.40
2023-02-11T05:31:21.523Z,1.40
2023-02-11T05:33:48.339Z,1.40
2023-02-11T05:36:15.933Z,1.40
2023-02-11T05:38:43.373Z,1.40
2023-02-11T05:41:12.997Z,1.40
2023-02-11T05:43:39.828Z,1.50
2023-02-11T05:46:06.897Z,1.50
2023-02-11T05:48:33.751Z,1.50
2023-02-11T05:51:00.584Z,1.60
2023-02-11T05:53:27.330Z,1.60
2023-02-11T05:55:54.395Z,1.70
2023-02-11T05:58:21.402Z,1.80
2023-02-11T06:00:48.126Z,1.80
2023-02-11T06:03:14.919Z,1.70
2023-02-11T06:05:43.915Z,1.70
2023-02-11T06:08:10.923Z,1.60
2023-02-11T06:10:38.106Z,1.60
2023-02-11T06:13:05.046Z,1.60
2023-02-11T06:15:31.801Z,1.60
2023-02-11T06:17:59.032Z,1.60
2023-02-11T06:20:25.858Z,1.60
2023-02-11T06:22:52.598Z,1.70
2023-02-11T06:25:19.423Z,1.70
2023-02-11T06:27:46.283Z,1.70
2023-02-11T06:30:13.857Z,1.70
2023-02-11T06:32:45.448Z,1.70
2023-02-11T06:35:14.348Z,1.80
2023-02-11T06:37:41.847Z,1.80
2023-02-11T06:40:09.558Z,1.80
2023-02-11T06:42:38.653Z,1.90
2023-02-11T06:45:09.450Z,1.90
2023-02-11T06:47:36.699Z,1.90
2023-02-11T06:50:03.717Z,1.90
2023-02-11T06:52:30.494Z,1.90
2023-02-11T06:54:57.216Z,1.90
2023-02-11T06:57:23.992Z,1.90
2023-02-11T06:59:51.032Z,1.90
2023-02-11T07:02:20.640Z,1.90
2023-02-11T07:04:47.822Z,1.90
2023-02-11T07:07:14.588Z,1.90
2023-02-11T07:09:41.669Z,1.90
2023-02-11T07:12:10.362Z,1.90
2023-02-11T07:14:37.169Z,1.90
2023-02-11T07:17:04.806Z,2.00
2023-02-11T07:19:32.027Z,2.00
2023-02-11T07:21:58.767Z,2.20
2023-02-11T07:24:25.514Z,2.20
2023-02-11T07:26:53.597Z,2.20
2023-02-11T07:29:20.351Z,2.20
2023-02-11T07:31:47.307Z,2.30
2023-02-11T07:34:14.489Z,2.30
2023-02-11T07:36:43.627Z,2.40
2023-02-11T07:39:10.631Z,2.40
2023-02-11T07:41:38.466Z,2.50
2023-02-11T07:44:05.467Z,2.50
2023-02-11T07:46:32.901Z,2.60
2023-02-11T07:49:00.000Z,2.60
2023-02-11T07:51:31.420Z,2.70
2023-02-11T07:53:59.970Z,2.80
2023-02-11T07:56:28.411Z,2.90
2023-02-11T07:58:59.710Z,3.00
2023-02-11T08:01:28.630Z,3.00
2023-02-11T08:03:57.031Z,3.10
2023-02-11T08:06:26.169Z,3.20
2023-02-11T08:08:53.624Z,3.20
2023-02-11T08:11:27.081Z,3.30
2023-02-11T08:13:55.014Z,3.30
2023-02-11T08:16:30.799Z,3.30
2023-02-11T08:18:59.474Z,3.30
2023-02-11T08:21:26.880Z,3.30
2023-02-11T08:23:54.654Z,3.40
2023-02-11T08:26:27.098Z,3.40
2023-02-11T08:28:55.850Z,3.50
2023-02-11T08:31:27.943Z,3.50
2023-02-11T08:33:57.822Z,3.60
2023-02-11T08:36:41.799Z,3.70
2023-02-11T08:39:21.218Z,3.80
2023-02-11T08:41:50.321Z,3.90
2023-02-11T08:44:18.654Z,4.00
2023-02-11T08:46:45.832Z,4.10
2023-02-11T08:49:12.682Z,4.20
2023-02-11T08:51:44.688Z,4.30
2023-02-11T08:54:11.755Z,4.30
2023-02-11T08:56:39.494Z,4.40
2023-02-11T08:59:07.439Z,4.40
2023-02-11T09:01:34.931Z,4.40
2023-02-11T09:04:01.818Z,4.40
2023-02-11T09:06:29.414Z,4.40
2023-02-11T09:08:57.779Z,4.40
2023-02-11T09:11:43.766Z,4.40
2023-02-11T09:14:21.193Z,4.40
2023-02-11T09:16:48.395Z,4.40
2023-02-11T09:19:15.452Z,4.50
2023-02-11T09:21:42.188Z,4.50
2023-02-11T09:24:09.182Z,4.40
2023-02-11T09:26:37.132Z,4.50
2023-02-11T09:29:05.485Z,4.50
2023-02-11T09:31:34.368Z,4.50
2023-02-11T09:34:05.890Z,4.60
2023-02-11T09:36:37.589Z,4.70
2023-02-11T09:39:07.761Z,4.80
2023-02-11T09:42:07.859Z,4.90
2023-02-11T09:44:36.476Z,4.90
2023-02-11T09:47:07.000Z,5.10
2023-02-11T09:49:40.934Z,5.20
2023-02-11T09:52:39.461Z,5.30
2023-02-11T09:55:19.429Z,5.30
2023-02-11T09:57:46.575Z,5.30
2023-02-11T10:00:25.692Z,5.30
2023-02-11T10:03:16.731Z,5.40
2023-02-11T10:05:57.768Z,5.50
2023-02-11T10:08:47.554Z,5.60
2023-02-11T10:11:36.822Z,5.50
2023-02-11T10:14:15.707Z,5.50
2023-02-11T10:16:50.756Z,5.40
2023-02-11T10:19:45.429Z,5.50
2023-02-11T10:22:16.957Z,5.60
2023-02-11T10:24:51.673Z,5.70
2023-02-11T10:27:20.727Z,5.80
2023-02-11T10:29:57.310Z,5.90
2023-02-11T10:32:39.281Z,5.90
2023-02-11T10:35:15.538Z,5.90
2023-02-11T10:37:44.467Z,5.90
2023-02-11T10:40:29.254Z,6.00
2023-02-11T10:42:59.765Z,6.00
2023-02-11T10:45:43.240Z,6.00
2023-02-11T10:48:51.741Z,6.00
2023-02-11T10:51:35.500Z,6.00
2023-02-11T10:54:05.388Z,5.90
2023-02-11T10:56:36.204Z,5.90
2023-02-11T10:59:07.609Z,5.90
2023-02-11T11:02:00.523Z,5.90
2023-02-11T11:04:30.496Z,5.90
2023-02-11T11:07:09.284Z,6.00
2023-02-11T11:10:17.924Z,6.10
2023-02-11T11:12:51.685Z,6.10
2023-02-11T11:15:22.113Z,6.20
2023-02-11T11:17:49.834Z,6.30
2023-02-11T11:20:20.460Z,6.20
2023-02-11T11:22:49.871Z,6.10
2023-02-11T11:25:29.505Z,6.20
2023-02-11T11:27:59.609Z,6.20
2023-02-11T11:30:39.330Z,6.20
2023-02-11T11:33:21.286Z,6.10
2023-02-11T11:36:07.415Z,6.20
2023-02-11T11:38:37.371Z,6.20
2023-02-11T11:41:31.579Z,6.30
2023-02-11T11:44:22.261Z,6.30
2023-02-11T11:46:56.041Z,6.20
2023-02-11T11:49:32.776Z,6.30
2023-02-11T11:52:09.576Z,6.30
2023-02-11T11:54:38.323Z,6.30
2023-02-11T11:57:18.635Z,6.30
2023-02-11T11:59:45.843Z,6.30
2023-02-11T12:02:34.217Z,6.30
2023-02-11T12:05:02.958Z,6.20
2023-02-11T12:07:44.928Z,6.20
2023-02-11T12:10:14.739Z,6.20
2023-02-11T12:13:04.553Z,6.10
2023-02-11T12:16:06.960Z,6.00
2023-02-11T12:18:47.358Z,5.90
2023-02-11T12:21:29.535Z,5.80
2023-02-11T12:23:59.404Z,5.70
2023-02-11T12:26:53.105Z,5.60
2023-02-11T12:29:55.060Z,5.60
2023-02-11T12:32:33.892Z,5.60
2023-02-11T12:35:18.064Z,5.50
2023-02-11T12:38:09.930Z,5.50
2023-02-11T12:41:10.177Z,5.50
2023-02-11T12:43:39.719Z,5.50
2023-02-11T12:46:12.338Z,5.50
2023-02-11T12:49:02.990Z,5.50
2023-02-11T12:51:44.671Z,5.60
2023-02-11T12:54:33.132Z,5.70
2023-02-11T12:57:05.705Z,5.80
2023-02-11T12:59:44.692Z,5.80
2023-02-11T13:02:34.829Z,5.80
2023-02-11T13:05:12.630Z,5.90
2023-02-11T13:07:45.324Z,6.00
2023-02-11T13:10:32.595Z,6.00
2023-02-11T13:13:16.927Z,6.10
2023-02-11T13:15:48.662Z,6.00
2023-02-11T13:18:31.686Z,6.00
2023-02-11T13:20:58.404Z,6.10
2023-02-11T13:23:39.500Z,6.20
2023-02-11T13:26:10.295Z,6.20
2023-02-11T13:28:54.027Z,6.30
2023-02-11T13:31:20.989Z,6.40
2023-02-11T13:33:49.806Z,6.40
2023-02-11T13:36:19.369Z,6.40
2023-02-11T13:38:58.885Z,6.40
2023-02-11T13:41:38.922Z,6.40
2023-02-11T13:44:08.670Z,6.40
2023-02-11T13:46:54.110Z,6.30
2023-02-11T13:49:25.355Z,6.40
2023-02-11T13:51:53.903Z,6.40
2023-02-11T13:54:31.248Z,6.40
2023-02-11T13:57:20.013Z,6.40
2023-02-11T14:00:06.765Z,6.50
2023-02-11T14:02:57.036Z,6.60
2023-02-11T14:05:48.548Z,6.60
2023-02-11T14:08:39.085Z,6.70
2023-02-11T14:11:14.635Z,6.70
2023-02-11T14:13:47.413Z,6.70
2023-02-11T14:16:36.427Z,6.70
2023-02-11T14:19:04.643Z,6.60
2023-02-11T14:21:41.520Z,6.60
2023-02-11T14:24:11.614Z,6.50
2023-02-11T14:27:04.888Z,6.50
2023-02-11T14:29:41.287Z,6.40
2023-02-11T14:32:19.317Z,6.40
2023-02-11T14:34:52.061Z,6.40
2023-02-11T14:37:39.923Z,6.40
2023-02-11T14:40:16.314Z,6.40
2023-02-11T14:42:43.390Z,6.40
2023-02-11T14:45:16.429Z,6.30
2023-02-11T14:47:55.351Z,6.30
2023-02-11T14:50:31.853Z,6.30
2023-02-11T14:53:01.632Z,6.30
2023-02-11T14:55:33.337Z,6.30
2023-02-11T14:58:19.179Z,6.20
2023-02-11T15:00:58.007Z,6.10
2023-02-11T15:03:33.519Z,6.10
2023-02-11T15:06:04.215Z,6.10
2023-02-11T15:08:31.738Z,6.10
2023-02-11T15:11:00.668Z,6.10
2023-02-11T15:13:31.101Z,6.20
2023-02-11T15:16:09.861Z,6.20
2023-02-11T15:18:43.640Z,6.30
2023-02-11T15:21:10.734Z,6.30
2023-02-11T15:23:37.528Z,6.30
2023-02-11T15:26:19.277Z,6.30
2023-02-11T15:28:52.148Z,6.30
2023-02-11T15:31:23.300Z,6.20
2023-02-11T15:33:51.445Z,6.20
2023-02-11T15:36:21.833Z,6.20
2023-02-11T15:39:18.573Z,6.30
2023-02-11T15:41:45.585Z,6.40
2023-02-11T15:44:32.955Z,6.40
2023-02-11T15:47:13.433Z,6.50
2023-02-11T15:49:47.821Z,6.50
2023-02-11T15:52:22.790Z,6.50
2023-02-11T15:54:49.984Z,6.40
2023-02-11T15:57:17.878Z,6.40
2023-02-11T15:59:52.074Z,6.40
2023-02-11T16:02:33.609Z,6.30
2023-02-11T16:05:06.904Z,6.30
2023-02-11T16:07:44.530Z,6.30
2023-02-11T16:10:17.408Z,6.30
2023-02-11T16:13:11.407Z,6.20
2023-02-11T16:15:44.836Z,6.20
2023-02-11T16:18:38.344Z,6.10
2023-02-11T16:21:14.732Z,6.10
2023-02-11T16:23:42.481Z,6.10
2023-02-11T16:26:29.456Z,6.10
2023-02-11T16:29:10.218Z,6.00
2023-02-11T16:31:40.685Z,6.00
2023-02-11T16:34:20.509Z,5.90
2023-02-11T16:36:54.174Z,5.80
2023-02-11T16:39:22.420Z,5.80
2023-02-11T16:41:50.812Z,5.80
2023-02-11T16:44:18.264Z,5.80
2023-02-11T16:46:45.779Z,5.80
2023-02-11T16:49:23.687Z,5.80
2023-02-11T16:51:52.786Z,5.80
2023-02-11T16:54:20.235Z,5.80
2023-02-11T16:56:47.016Z,5.70
2023-02-11T16:59:13.849Z,5.70
2023-02-11T17:01:42.179Z,5.70
2023-02-11T17:04:19.631Z,5.70
2023-02-11T17:06:48.143Z,5.70
2023-02-11T17:09:30.303Z,5.60
2023-02-11T17:11:57.742Z,5.70
2023-02-11T17:14:24.814Z,5.70
2023-02-11T17:16:51.934Z,5.70
2023-02-11T17:19:21.086Z,5.70
2023-02-11T17:21:49.964Z,5.80
2023-02-11T17:24:18.036Z,5.70
2023-02-11T17:26:46.157Z,5.70
2023-02-11T17:29:15.998Z,5.70
2023-02-11T17:31:42.960Z,5.60
2023-02-11T17:34:09.951Z,5.60
2023-02-11T17:36:37.106Z,5.60
2023-02-11T17:39:07.817Z,5.60
2023-02-11T17:41:36.451Z,5.60
2023-02-11T17:44:04.153Z,5.50
2023-02-11T17:46:32.130Z,5.60
2023-02-11T17:48:59.559Z,5.60
2023-02-11T17:51:34.190Z,5.60
2023-02-11T17:54:07.912Z,5.60
2023-02-11T17:56:36.701Z,5.60
2023-02-11T17:59:04.972Z,5.60
2023-02-11T18:01:33.469Z,5.70
2023-02-11T18:04:00.597Z,5.70
2023-02-11T18:06:29.082Z,5.80
2023-02-11T18:08:59.533Z,5.70
2023-02-11T18:11:27.806Z,5.80
2023-02-11T18:13:54.645Z,5.80
2023-02-11T18:16:23.466Z,5.80
2023-02-11T18:18:54.539Z,5.90
2023-02-11T18:21:29.671Z,5.90
2023-02-11T18:24:06.783Z,5.90
2023-02-11T18:26:36.963Z,6.00
2023-02-11T18:29:06.358Z,5.90
2023-02-11T18:31:35.188Z,5.90
2023-02-11T18:34:08.141Z,5.90
2023-02-11T18:36:35.871Z,5.90
2023-02-11T18:39:03.729Z,5.90
2023-02-11T18:41:30.583Z,5.90
2023-02-11T18:43:58.653Z,5.90
2023-02-11T18:46:25.498Z,5.80
2023-02-11T18:48:55.999Z,5.80
2023-02-11T18:51:23.270Z,5.80
2023-02-11T18:53:50.123Z,5.80
2023-02-11T18:56:20.364Z,5.80
2023-02-11T18:58:47.672Z,5.80
2023-02-11T19:01:20.931Z,5.90
2023-02-11T19:03:51.099Z,5.90
2023-02-11T19:06:26.658Z,6.00
2023-02-11T19:08:57.453Z,5.90
2023-02-11T19:11:45.468Z,5.90
2023-02-11T19:14:13.908Z,5.90
2023-02-11T19:16:42.783Z,5.90
2023-02-11T19:19:09.879Z,5.90
2023-02-11T19:21:36.817Z,5.90
2023-02-11T19:24:07.742Z,5.90
2023-02-11T19:26:35.482Z,5.80
2023-02-11T19:29:03.457Z,5.70
2023-02-11T19:31:32.236Z,5.70
2023-02-11T19:33:59.964Z,5.70
2023-02-11T19:36:26.957Z,5.70
2023-02-11T19:38:54.020Z,5.70
2023-02-11T19:41:23.067Z,5.70
2023-02-11T19:43:53.409Z,5.70
2023-02-11T19:46:21.361Z,5.70
2023-02-11T19:48:49.250Z,5.70
2023-02-11T19:51:16.209Z,5.60
2023-02-11T19:53:44.220Z,5.60
2023-02-11T19:56:11.173Z,5.60
2023-02-11T19:58:39.048Z,5.60
2023-02-11T20:01:25.602Z,5.50
2023-02-11T20:03:53.866Z,5.50
2023-02-11T20:06:24.165Z,5.50
2023-02-11T20:09:00.343Z,5.40
2023-02-11T20:11:30.159Z,5.40
2023-02-11T20:13:57.879Z,5.40
2023-02-11T20:16:41.044Z,5.30
2023-02-11T20:19:16.805Z,5.30
2023-02-11T20:21:46.706Z,5.20
2023-02-11T20:24:20.997Z,5.20
2023-02-11T20:26:57.950Z,5.20
2023-02-11T20:29:25.737Z,5.20
2023-02-11T20:31:53.398Z,5.20
2023-02-11T20:34:21.684Z,5.30
2023-02-11T20:36:54.940Z,5.30
2023-02-11T20:39:29.968Z,5.30
2023-02-11T20:42:03.635Z,5.30
2023-02-11T20:44:30.343Z,5.30
2023-02-11T20:46:57.108Z,5.30
2023-02-11T20:49:24.550Z,5.30
2023-02-11T20:51:53.549Z,5.30
2023-02-11T20:54:21.831Z,5.30
2023-02-11T20:56:50.629Z,5.30
2023-02-11T20:59:19.279Z,5.30
2023-02-11T21:01:49.178Z,5.30
2023-02-11T21:04:19.117Z,5.20
2023-02-11T21:06:52.236Z,5.20
2023-02-11T21:09:21.554Z,5.20
2023-02-11T21:11:49.333Z,5.20
2023-02-11T21:14:16.083Z,5.20
2023-02-11T21:16:42.912Z,5.20
2023-02-11T21:19:09.747Z,5.30
2023-02-11T21:21:37.908Z,5.20
2023-02-11T21:24:06.540Z,5.20
2023-02-11T21:26:35.248Z,5.20
2023-02-11T21:29:03.384Z,5.20
2023-02-11T21:31:32.847Z,5.20
2023-02-11T21:33:59.697Z,5.20
2023-02-11T21:36:28.758Z,5.20
2023-02-11T21:38:56.114Z,5.30
2023-02-11T21:41:23.181Z,5.30
2023-02-11T21:43:50.667Z,5.30
2023-02-11T21:46:18.491Z,5.20
2023-02-11T21:48:45.567Z,5.20
2023-02-11T21:51:19.141Z,5.20
2023-02-11T21:53:46.384Z,5.20
2023-02-11T21:56:18.183Z,5.20
2023-02-11T21:58:46.043Z,5.20
2023-02-11T22:01:18.425Z,5.20
2023-02-11T22:03:46.473Z,5.20
2023-02-11T22:06:15.939Z,5.30
2023-02-11T22:08:43.276Z,5.30
2023-02-11T22:11:12.425Z,5.30
2023-02-11T22:13:40.243Z,5.30
2023-02-11T22:16:11.182Z,5.20
2023-02-11T22:18:38.769Z,5.20
2023-02-11T22:21:11.610Z,5.20
2023-02-11T22:23:39.855Z,5.20
2023-02-11T22:26:09.448Z,5.20
2023-02-11T22:28:38.945Z,5.10
2023-02-11T22:31:15.934Z,5.10
2023-02-11T22:33:43.301Z,5.20
2023-02-11T22:36:23.229Z,5.20
2023-02-11T22:38:51.121Z,5.30
2023-02-11T22:41:19.209Z,5.30
2023-02-11T22:43:45.994Z,5.40
2023-02-11T22:46:16.614Z,5.40
2023-02-11T22:48:43.554Z,5.50
2023-02-11T22:51:14.116Z,5.50
2023-02-11T22:53:41.207Z,5.50
2023-02-11T22:56:10.316Z,5.60
2023-02-11T22:58:37.341Z,5.60
2023-02-11T23:01:05.955Z,5.60
2023-02-11T23:03:34.307Z,5.60
2023-02-11T23:06:01.487Z,5.60
2023-02-11T23:08:30.760Z,5.60
2023-02-11T23:11:07.575Z,5.50
2023-02-11T23:13:36.523Z,5.50
2023-02-11T23:16:05.567Z,5.50
2023-02-11T23:18:32.713Z,5.50
2023-02-11T23:21:05.632Z,5.50
2023-02-11T23:23:32.988Z,5.40
2023-02-11T23:26:00.429Z,5.40
2023-02-11T23:28:27.477Z,5.40
2023-02-11T23:30:54.325Z,5.40
2023-02-11T23:33:21.419Z,5.50
2023-02-11T23:35:48.499Z,5.50
2023-02-11T23:38:15.490Z,5.50
2023-02-11T23:40:42.600Z,5.50
2023-02-11T23:43:09.464Z,5.50
2023-02-11T23:45:36.247Z,5.40
2023-02-11T23:48:03.021Z,5.30
2023-02-11T23:50:30.190Z,5.10
2023-02-11T23:52:56.921Z,5.10
2023-02-11T23:55:24.022Z,5.10
2023-02-11T23:57:50.866Z,5.10
